Time;durP1;ratioP1;P1;durP2;ratioP2;P2;SDS_P1;SDS_P2;PMS_P1;PMS_P2;Temp;Humidity;BMP_temperature;BMP_pressure;BME280_temperature;BME280_humidity;BME280_pressure;Samples;Min_cycle;Max_cycle;Signal;HPM_P1;HPM_P2
2022/02/21 00:02:01;;;;;;;0.10;0.10;;;;;;;8.54;58.00;99717.81;4996681;28;20040;-84
2022/02/21 00:04:27;;;;;;;0.10;0.10;;;;;;;8.59;58.65;99742.28;4996796;28;20034;-85
2022/02/21 00:06:53;;;;;;;0.10;0.10;;;;;;;8.55;58.22;99738.03;4996558;28;20034;-85
2022/02/21 00:09:19;;;;;;;0.05;0.05;;;;;;;8.46;58.50;99768.19;4995090;28;20080;-84
2022/02/21 00:11:45;;;;;;;1.45;1.45;;;;;;;8.41;57.73;99752.44;4995342;28;20069;-85
2022/02/21 00:14:11;;;;;;;0.20;0.20;;;;;;;8.58;57.41;99761.69;4996076;28;20023;-85
2022/02/21 00:16:37;;;;;;;3.40;3.08;;;;;;;8.48;57.54;99781.34;4996065;28;20041;-84
2022/02/21 00:19:04;;;;;;;0.10;0.10;;;;;;;8.43;56.46;99753.25;4995106;28;20073;-86
2022/02/21 00:21:30;;;;;;;0.10;0.10;;;;;;;8.51;56.82;99770.69;4996304;28;20026;-86
2022/02/21 00:23:57;;;;;;;0.10;0.10;;;;;;;8.61;56.50;99766.00;4996313;28;20034;-85
2022/02/21 00:26:23;;;;;;;0.10;0.10;;;;;;;8.38;56.31;99785.97;4992056;28;20033;-84
2022/02/21 00:28:50;;;;;;;1.65;0.68;;;;;;;8.47;55.85;99827.97;4995253;28;20077;-86
2022/02/21 00:31:16;;;;;;;0.10;0.10;;;;;;;8.35;55.77;99808.06;4995676;28;20030;-85
2022/02/21 00:33:42;;;;;;;0.10;0.10;;;;;;;8.59;54.67;99813.59;4994695;28;20046;-85
2022/02/21 00:36:09;;;;;;;0.03;0.03;;;;;;;8.28;54.94;99826.75;4996716;28;20037;-85
2022/02/21 00:38:35;;;;;;;0.10;0.10;;;;;;;8.24;54.27;99853.19;4995403;28;20037;-84
2022/02/21 00:41:02;;;;;;;4.07;0.95;;;;;;;8.46;54.32;99817.44;4995098;28;20115;-86
2022/02/21 00:43:29;;;;;;;0.10;0.10;;;;;;;8.28;55.06;99824.09;4996172;28;20113;-86
2022/02/21 00:45:55;;;;;;;0.10;0.10;;;;;;;8.53;55.50;99821.69;4996282;28;20123;-86
2022/02/21 00:48:22;;;;;;;0.10;0.10;;;;;;;8.29;55.75;99823.16;4996015;28;20385;-86
2022/02/21 00:50:48;;;;;;;0.10;0.10;;;;;;;8.47;56.12;99825.34;4995823;28;20027;-86
2022/02/21 00:53:15;;;;;;;0.10;0.10;;;;;;;8.39;56.30;99838.72;4993908;28;20084;-87
2022/02/21 00:55:41;;;;;;;0.30;0.30;;;;;;;8.31;54.72;99838.09;4994006;28;20042;-87
2022/02/21 00:58:07;;;;;;;0.10;0.10;;;;;;;8.35;52.58;99837.09;4992699;28;20034;-86
2022/02/21 01:00:37;;;;;;;0.10;0.10;;;;;;;8.48;52.65;99860.53;4996003;28;20035;-87
2022/02/21 01:03:03;;;;;;;0.10;0.10;;;;;;;8.40;53.31;99856.28;4993382;28;20042;-84
2022/02/21 01:05:30;;;;;;;0.10;0.10;;;;;;;8.35;53.26;99849.41;4995378;28;20065;-86
2022/02/21 01:07:56;;;;;;;0.10;0.10;;;;;;;8.32;53.61;99897.84;4995237;28;20107;-86
2022/02/21 01:10:23;;;;;;;0.10;0.10;;;;;;;8.33;53.99;99846.81;4994777;28;20023;-86
2022/02/21 01:12:49;;;;;;;0.10;0.10;;;;;;;8.31;53.95;99874.16;4993877;28;20485;-86
2022/02/21 01:15:15;;;;;;;0.10;0.10;;;;;;;8.39;53.54;99862.47;4995414;28;20035;-87
2022/02/21 01:17:43;;;;;;;1.17;0.65;;;;;;;8.47;54.92;99906.31;4992359;28;20042;-86
2022/02/21 01:20:12;;;;;;;0.28;0.28;;;;;;;8.49;52.40;99883.41;4994234;28;20500;-87
2022/02/21 01:22:38;;;;;;;0.10;0.10;;;;;;;8.25;52.28;99899.81;4995476;28;20069;-87
2022/02/21 01:25:06;;;;;;;0.10;0.10;;;;;;;8.22;52.03;99889.34;4995191;28;20026;-87
2022/02/21 01:27:32;;;;;;;0.10;0.10;;;;;;;8.23;52.84;99913.94;4994866;28;20030;-87
2022/02/21 01:29:59;;;;;;;0.08;0.08;;;;;;;8.17;51.78;99914.09;4994988;28;20041;-86
2022/02/21 01:32:25;;;;;;;0.20;0.20;;;;;;;8.37;51.93;99885.44;4994549;28;20042;-87
2022/02/21 01:34:52;;;;;;;0.10;0.10;;;;;;;8.38;52.06;99900.34;4993336;28;20454;-86
2022/02/21 01:37:18;;;;;;;0.10;0.10;;;;;;;8.24;52.66;99910.41;4994978;28;20035;-88
2022/02/21 01:39:46;;;;;;;0.20;0.20;;;;;;;8.34;53.23;99897.84;4993501;28;20112;-88
2022/02/21 01:42:12;;;;;;;0.10;0.10;;;;;;;8.40;53.54;99913.53;4994502;28;20062;-88
2022/02/21 01:44:41;;;;;;;0.10;0.10;;;;;;;8.47;53.37;99914.25;4994057;28;20038;-88
2022/02/21 01:47:11;;;;;;;0.10;0.10;;;;;;;8.35;52.19;99903.06;4976772;28;20125;-88
2022/02/21 01:49:37;;;;;;;0.10;0.10;;;;;;;8.38;52.19;99934.66;4994260;28;20406;-88
2022/02/21 01:52:07;;;;;;;0.10;0.10;;;;;;;8.24;51.36;99926.22;4994885;28;20030;-87
2022/02/21 01:54:34;;;;;;;0.10;0.10;;;;;;;8.37;51.27;99926.78;4992922;28;20125;-86
2022/02/21 01:57:00;;;;;;;0.80;0.80;;;;;;;8.31;51.01;99932.22;4994344;28;20397;-88
2022/02/21 01:59:27;;;;;;;0.10;0.10;;;;;;;7.88;50.62;99919.16;4994227;28;20034;-89
2022/02/21 02:01:53;;;;;;;0.10;0.10;;;;;;;7.93;50.92;99908.50;4992345;28;20528;-89
2022/02/21 02:04:20;;;;;;;0.10;0.10;;;;;;;8.04;49.59;99958.38;4993723;28;20031;-87
2022/02/21 02:06:49;;;;;;;0.10;0.10;;;;;;;8.13;49.69;99904.53;4994565;28;20108;-86
2022/02/21 02:09:16;;;;;;;0.10;0.10;;;;;;;8.27;49.00;99936.69;4992358;28;20104;-88
2022/02/21 02:11:44;;;;;;;0.10;0.10;;;;;;;8.18;49.65;99929.03;4993672;28;20046;-88
2022/02/21 02:17:18;;;;;;;0.10;0.10;;;;;;;8.24;48.70;99928.88;5028504;28;20483;-87
2022/02/21 02:19:46;;;;;;;0.10;0.10;;;;;;;8.24;48.70;99929.72;5010583;28;20101;-87
2022/02/21 02:22:25;;;;;;;0.10;0.10;;;;;;;8.24;46.82;99931.50;5011603;28;20049;-84
2022/02/21 02:25:03;;;;;;;0.00;0.00;;;;;;;8.26;47.70;99938.47;4998096;28;20035;-87
2022/02/21 02:27:48;;;;;;;0.20;0.20;;;;;;;8.38;48.17;99913.53;4990846;28;20042;-87
2022/02/21 02:30:14;;;;;;;0.10;0.10;;;;;;;8.49;48.50;99905.38;4986586;28;20126;-86
2022/02/21 02:32:40;;;;;;;0.10;0.10;;;;;;;8.28;47.95;99930.53;4990586;28;20027;-87
2022/02/21 02:35:07;;;;;;;1.95;1.85;;;;;;;8.41;48.14;99913.47;4991230;28;20053;-87
2022/02/21 02:37:33;;;;;;;0.00;0.00;;;;;;;8.27;48.82;99936.69;4990906;28;20593;-87
2022/02/21 02:40:01;;;;;;;0.10;0.10;;;;;;;8.23;48.23;99967.56;4991503;28;20113;-88
2022/02/21 02:42:27;;;;;;;0.40;0.40;;;;;;;8.29;47.85;99945.47;4990837;28;20123;-88
2022/02/21 02:44:54;;;;;;;2.42;0.85;;;;;;;8.34;48.02;99921.59;4991742;28;20038;-87
2022/02/21 02:47:20;;;;;;;3.50;1.90;;;;;;;8.11;48.04;99946.75;4974150;28;20038;-89
2022/02/21 02:49:46;;;;;;;0.08;0.08;;;;;;;8.09;48.67;99965.28;4991413;28;20134;-87
2022/02/21 02:52:12;;;;;;;0.30;0.30;;;;;;;8.13;48.49;99928.28;4991194;28;20023;-85
2022/02/21 02:54:39;;;;;;;0.10;0.10;;;;;;;8.35;48.42;99934.75;4990731;28;20034;-87
2022/02/21 02:57:06;;;;;;;0.80;0.80;;;;;;;8.13;47.24;99930.91;4993250;28;20054;-85
2022/02/21 02:59:32;;;;;;;0.10;0.10;;;;;;;8.23;48.64;99930.63;4994827;28;20035;-87
2022/02/21 03:01:58;;;;;;;0.47;0.47;;;;;;;8.33;48.06;99946.25;4990304;28;20058;-88
2022/02/21 03:04:24;;;;;;;0.10;0.10;;;;;;;8.06;48.26;99965.34;4994675;28;20548;-87
2022/02/21 03:06:51;;;;;;;0.10;0.10;;;;;;;8.17;47.34;99941.34;4999900;28;20039;-87
2022/02/21 03:09:17;;;;;;;0.10;0.10;;;;;;;8.20;47.31;99967.66;4990404;28;20030;-86
2022/02/21 03:11:43;;;;;;;0.13;0.13;;;;;;;8.14;46.36;99935.25;4990003;28;20482;-86
2022/02/21 03:14:11;;;;;;;0.10;0.10;;;;;;;8.28;47.03;99959.56;4972533;28;20387;-84
2022/02/21 03:16:37;;;;;;;0.10;0.10;;;;;;;8.19;47.12;99955.38;5004618;28;20037;-87
2022/02/21 03:19:04;;;;;;;0.10;0.10;;;;;;;8.20;47.65;99945.66;5009404;28;20029;-87
2022/02/21 03:21:30;;;;;;;0.10;0.10;;;;;;;8.24;48.26;99948.19;5009087;28;20023;-88
2022/02/21 03:23:56;;;;;;;0.77;0.77;;;;;;;8.30;48.51;99941.91;5007900;28;20121;-87
2022/02/21 03:26:22;;;;;;;0.10;0.10;;;;;;;8.16;49.16;99986.22;5007483;28;20042;-84
2022/02/21 03:28:48;;;;;;;0.10;0.10;;;;;;;8.16;48.69;99975.69;4995402;28;20034;-86
2022/02/21 03:31:16;;;;;;;0.10;0.10;;;;;;;7.85;47.93;99968.47;4996404;28;20068;-87
2022/02/21 03:33:42;;;;;;;26.40;1.85;;;;;;;8.07;47.82;99955.66;4996194;28;20099;-87
2022/02/21 03:36:09;;;;;;;0.10;0.10;;;;;;;7.95;48.46;99993.75;4995079;28;20060;-86
2022/02/21 03:38:35;;;;;;;0.10;0.10;;;;;;;7.85;47.96;99964.09;4994088;28;20049;-87
2022/02/21 03:41:02;;;;;;;0.10;0.10;;;;;;;7.90;47.89;99969.25;4992805;28;20042;-88
2022/02/21 03:43:28;;;;;;;0.15;0.15;;;;;;;8.01;48.29;99954.06;4994229;28;20038;-87
2022/02/21 03:45:54;;;;;;;0.10;0.10;;;;;;;7.97;47.28;99965.56;4996108;28;20041;-84
2022/02/21 03:48:20;;;;;;;0.10;0.10;;;;;;;8.04;47.36;99939.91;4994729;28;20089;-87
2022/02/21 03:50:46;;;;;;;0.10;0.10;;;;;;;7.65;46.38;99942.56;4995555;28;20046;-79
2022/02/21 03:53:12;;;;;;;0.82;0.82;;;;;;;7.89;46.50;99956.97;4995382;28;20023;-87
2022/02/21 03:55:39;;;;;;;0.10;0.10;;;;;;;7.84;46.21;99970.25;4995177;28;20168;-87
2022/02/21 03:58:05;;;;;;;0.17;0.17;;;;;;;7.70;46.69;99952.13;4995507;28;20031;-87
2022/02/21 04:00:31;;;;;;;0.10;0.10;;;;;;;7.85;46.07;99936.84;4993978;28;20027;-85
2022/02/21 04:02:57;;;;;;;0.13;0.13;;;;;;;7.99;46.05;99954.97;4994897;28;20089;-87
2022/02/21 04:05:23;;;;;;;0.10;0.10;;;;;;;7.88;47.07;99949.97;4995323;28;20031;-86
2022/02/21 04:07:49;;;;;;;0.10;0.10;;;;;;;8.01;47.23;99945.25;4995127;28;20058;-87
2022/02/21 04:10:20;;;;;;;0.10;0.10;;;;;;;7.92;47.52;99933.16;4995026;28;20093;-88
2022/02/21 04:12:47;;;;;;;0.10;0.10;;;;;;;8.01;48.17;99935.59;4990624;28;20030;-87
2022/02/21 04:15:14;;;;;;;0.10;0.10;;;;;;;7.89;48.05;99938.53;4994478;28;20038;-87
2022/02/21 04:20:27;;;;;;;0.10;0.10;;;;;;;7.69;47.94;99936.31;5107111;27;20155;-89
2022/02/21 04:23:09;;;;;;;0.10;0.10;;;;;;;7.92;47.57;99941.94;4952187;27;5368156;-88
2022/02/21 04:25:36;;;;;;;0.10;0.10;;;;;;;7.74;47.71;99951.13;5114020;28;20104;-88
2022/02/21 04:28:02;;;;;;;0.10;0.10;;;;;;;7.82;48.39;99955.38;5109042;28;20038;-86
2022/02/21 04:30:29;;;;;;;0.10;0.10;;;;;;;7.76;48.00;99943.19;5109951;28;20027;-87
2022/02/21 04:32:56;;;;;;;0.10;0.10;;;;;;;7.84;48.67;99953.56;5109305;28;20031;-84
2022/02/21 04:35:24;;;;;;;0.10;0.10;;;;;;;7.89;48.83;99975.44;5110452;28;20055;-87
2022/02/21 04:37:51;;;;;;;0.10;0.10;;;;;;;7.65;48.75;99946.09;5109184;28;20494;-87
2022/02/21 04:40:20;;;;;;;0.10;0.10;;;;;;;7.88;49.36;99949.97;5110196;28;20039;-87
2022/02/21 04:42:48;;;;;;;0.10;0.10;;;;;;;7.72;49.73;99968.75;5109467;28;20024;-87
2022/02/21 04:45:15;;;;;;;0.10;0.10;;;;;;;7.82;49.30;99935.13;5110063;28;20062;-85
2022/02/21 04:47:41;;;;;;;0.13;0.13;;;;;;;7.76;49.90;99946.72;5106889;28;20032;-81
2022/02/21 04:50:09;;;;;;;0.10;0.10;;;;;;;7.66;50.59;99982.06;5107130;28;20043;-84
2022/02/21 04:52:43;;;;;;;0.10;0.10;;;;;;;7.69;50.49;99953.03;5108457;28;20039;-87
2022/02/21 04:55:11;;;;;;;0.10;0.10;;;;;;;7.74;50.26;99959.06;5108526;28;20094;-87
2022/02/21 04:57:38;;;;;;;0.10;0.10;;;;;;;7.85;50.40;99955.28;5110567;28;20044;-88
2022/02/21 05:00:07;;;;;;;0.10;0.10;;;;;;;7.87;50.99;99951.72;5109604;28;20020;-86
2022/02/21 05:02:33;;;;;;;0.10;0.10;;;;;;;7.77;50.34;99943.13;5110170;28;20028;-88
2022/02/21 05:04:59;;;;;;;0.10;0.10;;;;;;;7.92;50.34;99933.16;5110747;28;20103;-86
2022/02/21 05:07:32;;;;;;;0.10;0.10;;;;;;;7.83;51.17;99955.34;5107159;28;20035;-80
2022/02/21 05:10:03;;;;;;;0.20;0.20;;;;;;;7.70;50.51;99931.03;5108555;28;20081;-78
2022/02/21 05:12:29;;;;;;;0.10;0.10;;;;;;;7.72;50.04;99942.38;5108230;28;20085;-83
2022/02/21 05:14:55;;;;;;;1.25;1.25;;;;;;;7.65;50.45;99959.28;5108385;28;20471;-87
2022/02/21 05:17:21;;;;;;;0.10;0.10;;;;;;;7.69;49.83;99929.28;5105857;28;20059;-87
2022/02/21 05:19:47;;;;;;;0.20;0.20;;;;;;;7.78;49.27;99915.88;5107913;28;20086;-87
2022/02/21 05:22:13;;;;;;;0.10;0.10;;;;;;;7.58;49.98;99911.06;5108306;28;20486;-88
2022/02/21 05:24:40;;;;;;;0.10;0.10;;;;;;;7.71;49.58;99922.22;5108036;28;20035;-79
2022/02/21 05:27:06;;;;;;;0.10;0.10;;;;;;;7.70;49.90;99933.66;5108329;28;20019;-88
2022/02/21 05:29:32;;;;;;;0.10;0.10;;;;;;;7.61;50.43;99923.31;5108329;28;20471;-89
2022/02/21 05:31:58;;;;;;;0.10;0.10;;;;;;;7.61;49.59;99923.31;5107199;28;20042;-88
2022/02/21 05:34:24;;;;;;;0.10;0.10;;;;;;;7.66;49.84;99908.25;5094467;28;20099;-88
2022/02/21 05:36:50;;;;;;;0.20;0.20;;;;;;;7.57;50.46;99934.84;5094313;28;20032;-88
2022/02/21 05:39:17;;;;;;;0.10;0.10;;;;;;;7.47;49.67;99941.22;5094616;28;20095;-86
2022/02/21 05:41:44;;;;;;;0.10;0.10;;;;;;;7.70;50.15;99899.38;5091750;28;20096;-88
2022/02/21 05:44:10;;;;;;;0.20;0.20;;;;;;;7.82;49.78;99921.94;5094898;28;20032;-87
2022/02/21 05:46:37;;;;;;;0.10;0.10;;;;;;;7.65;49.82;99905.66;5094545;28;20016;-86
2022/02/21 05:49:04;;;;;;;0.10;0.10;;;;;;;7.55;49.86;99913.78;5094880;28;20032;-84
2022/02/21 05:51:30;;;;;;;0.10;0.10;;;;;;;7.77;50.04;99903.59;5093366;28;20431;-88
2022/02/21 05:53:56;;;;;;;0.10;0.10;;;;;;;7.77;50.28;99903.59;5094169;28;20049;-88
2022/02/21 05:56:23;;;;;;;4.82;1.35;;;;;;;7.65;50.06;99905.66;5093809;28;20032;-87
2022/02/21 05:58:49;;;;;;;0.10;0.10;;;;;;;7.73;50.03;99904.56;5092329;28;20056;-82
2022/02/21 06:01:15;;;;;;;0.65;0.65;;;;;;;7.73;50.59;99904.56;5094756;28;20086;-87
2022/02/21 06:03:42;;;;;;;4.57;1.88;;;;;;;7.56;51.08;99880.38;5093988;28;20056;-88
2022/02/21 06:06:08;;;;;;;0.65;0.65;;;;;;;7.44;50.93;99882.38;5093329;28;20118;-86
2022/02/21 06:08:34;;;;;;;0.10;0.10;;;;;;;7.52;50.87;99899.81;5090628;28;20035;-87
2022/02/21 06:11:01;;;;;;;0.10;0.10;;;;;;;7.45;50.65;99889.41;5091672;28;20092;-87
2022/02/21 06:13:27;;;;;;;0.30;0.30;;;;;;;7.74;50.64;99889.63;5092049;28;20031;-87
2022/02/21 06:15:53;;;;;;;0.10;0.10;;;;;;;7.68;50.52;99885.38;5093250;28;20439;-88
2022/02/21 06:18:20;;;;;;;0.10;0.10;;;;;;;7.56;50.82;99897.06;5092580;28;20032;-87
2022/02/21 06:20:46;;;;;;;0.20;0.20;;;;;;;7.63;51.22;99887.25;5093277;28;20028;-87
2022/02/21 06:23:12;;;;;;;0.10;0.10;;;;;;;7.53;51.47;99880.47;5093030;28;20060;-86
2022/02/21 06:25:39;;;;;;;0.10;0.10;;;;;;;7.35;51.76;99872.06;5091560;28;20024;-86
2022/02/21 06:28:06;;;;;;;0.10;0.10;;;;;;;7.53;51.19;99881.31;5092294;28;20119;-87
2022/02/21 06:30:32;;;;;;;12.65;2.83;;;;;;;7.42;51.17;99870.16;5092774;28;20062;-87
2022/02/21 06:32:58;;;;;;;0.10;0.10;;;;;;;7.53;50.86;99856.75;5091279;28;20036;-85
2022/02/21 06:35:24;;;;;;;0.10;0.10;;;;;;;7.60;51.32;99871.47;5093412;28;20045;-86
2022/02/21 06:37:52;;;;;;;0.10;0.10;;;;;;;7.40;51.38;99869.31;5092860;28;20121;-77
2022/02/21 06:40:18;;;;;;;0.10;0.10;;;;;;;7.45;51.34;99870.94;5090555;28;20056;-83
2022/02/21 06:42:44;;;;;;;0.50;0.50;;;;;;;7.53;51.32;99877.81;5088042;28;20028;-85
2022/02/21 06:45:11;;;;;;;0.28;0.28;;;;;;;7.41;51.35;99877.22;5090721;28;20070;-84
2022/02/21 06:47:37;;;;;;;0.13;0.13;;;;;;;7.50;51.52;99859.44;5090147;28;20043;-86
2022/02/21 06:50:06;;;;;;;0.10;0.10;;;;;;;7.49;51.38;99886.69;5086506;28;20032;-83
2022/02/21 06:52:32;;;;;;;1.27;1.17;;;;;;;7.64;51.38;99869.66;5090759;28;20231;-85
2022/02/21 06:54:59;;;;;;;0.10;0.10;;;;;;;7.71;51.06;99858.94;5091656;28;20441;-84
2022/02/21 06:57:28;;;;;;;0.10;0.10;;;;;;;7.86;51.07;99860.34;5089885;28;20682;-84
2022/02/21 06:59:58;;;;;;;0.20;0.20;;;;;;;7.73;51.10;99862.38;5090757;28;20028;-89
2022/02/21 07:02:43;;;;;;;0.10;0.10;;;;;;;7.90;50.88;99861.09;5075365;28;20032;-89
2022/02/21 07:05:10;;;;;;;0.10;0.10;;;;;;;7.95;50.71;99851.31;5088976;28;20403;-89
2022/02/21 07:07:37;;;;;;;1.30;1.30;;;;;;;7.81;51.18;99885.06;5092968;28;20786;-86
2022/02/21 07:10:05;;;;;;;0.77;0.77;;;;;;;7.91;50.76;99841.75;5092077;28;20031;-89
2022/02/21 07:12:31;;;;;;;0.10;0.10;;;;;;;7.90;51.41;99842.63;5091886;28;20027;-86
2022/02/21 07:14:57;;;;;;;0.10;0.10;;;;;;;7.86;51.10;99864.72;5090888;28;20522;-86
2022/02/21 07:17:24;;;;;;;0.10;0.10;;;;;;;7.97;51.20;99838.94;5088001;28;20052;-88
2022/02/21 07:19:51;;;;;;;0.10;0.10;;;;;;;8.01;51.05;99860.84;5094123;28;20027;-85
2022/02/21 07:22:18;;;;;;;0.10;0.10;;;;;;;7.98;51.10;99830.13;5092761;28;20549;-87
2022/02/21 07:24:44;;;;;;;0.10;0.10;;;;;;;8.05;50.47;99815.88;5092044;28;20032;-88
2022/02/21 07:27:10;;;;;;;0.10;0.10;;;;;;;8.12;50.44;99815.72;5092697;28;20496;-90
2022/02/21 07:29:37;;;;;;;0.10;0.10;;;;;;;8.17;50.20;99837.56;5093081;28;20431;-89
2022/02/21 07:32:04;;;;;;;0.20;0.20;;;;;;;8.26;50.32;99806.53;5092745;28;20020;-91
2022/02/21 07:34:31;;;;;;;0.10;0.10;;;;;;;8.30;50.56;99790.59;5092589;28;20032;-89
2022/02/21 07:36:57;;;;;;;0.32;0.32;;;;;;;8.32;50.93;99808.13;5090192;28;20039;-89
2022/02/21 07:39:23;;;;;;;0.00;0.00;;;;;;;8.16;50.82;99801.53;5093100;28;20123;-90
2022/02/21 07:41:50;;;;;;;0.20;0.20;;;;;;;8.52;50.01;99788.25;5092338;28;20032;-90
2022/02/21 07:44:16;;;;;;;0.10;0.10;;;;;;;8.46;50.53;99814.81;5089533;28;20035;-90
2022/02/21 07:46:42;;;;;;;0.10;0.10;;;;;;;8.59;50.16;99792.47;5088294;28;20043;-82
2022/02/21 07:49:08;;;;;;;0.10;0.10;;;;;;;8.42;49.98;99777.94;5088859;28;20375;-79
2022/02/21 07:51:53;;;;;;;0.50;0.50;;;;;;;8.58;50.42;99782.81;5092435;28;20032;-90
2022/02/21 07:54:19;;;;;;;0.10;0.10;;;;;;;8.42;50.90;99806.97;5090809;28;20049;-89
2022/02/21 07:56:45;;;;;;;5.82;1.00;;;;;;;8.56;51.83;99780.22;5088276;28;20107;-87
2022/02/21 07:59:11;;;;;;;2.65;0.93;;;;;;;8.35;53.37;99801.88;5090889;28;20021;-90
2022/02/21 08:01:41;;;;;;;0.10;0.10;;;;;;;8.05;56.18;99789.50;5093211;28;20115;-89
2022/02/21 08:04:07;;;;;;;0.10;0.10;;;;;;;7.80;56.88;99804.22;5090500;28;20035;-89
2022/02/21 08:06:34;;;;;;;0.10;0.10;;;;;;;7.84;57.61;99764.56;5093415;28;20016;-88
2022/02/21 08:09:00;;;;;;;0.10;0.10;;;;;;;7.82;58.31;99752.31;5093355;28;20037;-88
2022/02/21 08:11:26;;;;;;;0.47;0.47;;;;;;;7.66;59.04;99765.03;5093710;28;20032;-90
2022/02/21 08:13:54;;;;;;;0.10;0.10;;;;;;;7.45;59.13;99757.63;5094007;28;20028;-88
2022/02/21 08:16:21;;;;;;;1.75;1.65;;;;;;;7.40;59.71;99761.25;5092719;28;20027;-88
2022/02/21 08:18:47;;;;;;;0.10;0.10;;;;;;;7.38;60.44;99740.22;5089830;28;20028;-88
2022/02/21 08:21:13;;;;;;;0.20;0.20;;;;;;;7.40;60.91;99738.44;5092506;28;20071;-88
2022/02/21 08:23:39;;;;;;;0.10;0.10;;;;;;;7.08;62.22;99755.84;5093919;28;20032;-87
2022/02/21 08:26:05;;;;;;;0.10;0.10;;;;;;;7.16;62.87;99741.66;5093306;28;20032;-86
2022/02/21 08:28:32;;;;;;;0.10;0.10;;;;;;;6.98;63.30;99720.13;5093028;28;20126;-87
2022/02/21 08:30:58;;;;;;;0.13;0.13;;;;;;;6.78;65.08;99739.84;5093586;28;20035;-86
2022/02/21 08:33:24;;;;;;;0.10;0.10;;;;;;;6.85;64.87;99723.91;5093392;28;20107;-86
2022/02/21 08:35:50;;;;;;;0.10;0.10;;;;;;;6.96;65.50;99719.28;5093488;28;20478;-87
2022/02/21 08:38:16;;;;;;;0.10;0.10;;;;;;;6.86;65.63;99725.66;5093964;28;20024;-88
2022/02/21 08:40:43;;;;;;;0.10;0.10;;;;;;;6.89;66.33;99717.66;5092848;28;20024;-84
2022/02/21 08:43:09;;;;;;;0.10;0.10;;;;;;;6.88;66.36;99723.84;5092847;28;20117;-87
2022/02/21 08:45:35;;;;;;;0.10;0.10;;;;;;;6.82;66.49;99723.97;5090252;28;20028;-84
2022/02/21 08:48:01;;;;;;;0.43;0.43;;;;;;;6.68;67.33;99705.84;5074680;28;20032;-86
2022/02/21 08:50:28;;;;;;;0.10;0.10;;;;;;;6.76;66.76;99720.59;5092094;28;20036;-85
2022/02/21 08:52:54;;;;;;;0.10;0.10;;;;;;;6.82;66.77;99697.66;5091870;28;20046;-86
2022/02/21 08:55:20;;;;;;;0.10;0.10;;;;;;;6.88;67.33;99708.03;5089406;28;20024;-86
2022/02/21 08:57:46;;;;;;;0.10;0.10;;;;;;;6.70;67.51;99696.19;5092562;28;20032;-85
2022/02/21 09:00:15;;;;;;;0.10;0.10;;;;;;;6.76;67.85;99696.88;5092263;28;20035;-90
2022/02/21 09:02:44;;;;;;;0.32;0.32;;;;;;;6.68;67.87;99685.69;5092833;28;20032;-90
2022/02/21 09:05:11;;;;;;;0.10;0.10;;;;;;;6.78;67.54;99687.19;5092834;28;20111;-86
2022/02/21 09:07:37;;;;;;;0.10;0.10;;;;;;;6.90;67.14;99680.81;5092005;28;20058;-87
2022/02/21 09:10:04;;;;;;;0.10;0.10;;;;;;;6.89;67.34;99672.91;5096325;28;20029;-87
2022/02/21 09:12:33;;;;;;;0.10;0.10;;;;;;;6.86;67.63;99667.72;5095038;28;20016;-88
2022/02/21 09:15:01;;;;;;;0.10;0.10;;;;;;;6.82;67.64;99672.19;5100086;28;20043;-88
2022/02/21 09:17:29;;;;;;;0.10;0.10;;;;;;;6.88;67.43;99660.66;5097919;28;20032;-89
2022/02/21 09:19:55;;;;;;;0.10;0.10;;;;;;;6.91;67.49;99639.53;5097197;28;20024;-93
2022/02/21 09:22:22;;;;;;;0.17;0.17;;;;;;;6.94;67.47;99660.50;5072344;28;20151;-86
2022/02/21 09:24:49;;;;;;;0.10;0.10;;;;;;;6.80;68.04;99659.09;5090843;28;20078;-88
2022/02/21 09:27:16;;;;;;;0.10;0.10;;;;;;;6.90;68.09;99661.47;5095962;28;20052;-87
2022/02/21 09:29:43;;;;;;;0.10;0.10;;;;;;;7.00;68.14;99680.56;5094704;28;20035;-88
2022/02/21 09:32:09;;;;;;;0.10;0.10;;;;;;;7.12;67.94;99648.66;5095383;28;20020;-88
2022/02/21 09:34:35;;;;;;;0.40;0.40;;;;;;;6.96;67.49;99642.91;5094679;28;20024;-80
2022/02/21 09:37:03;;;;;;;0.20;0.20;;;;;;;7.08;68.12;99690.00;5110706;28;20036;-89
2022/02/21 09:39:29;;;;;;;0.10;0.10;;;;;;;7.08;68.00;99661.03;5095458;28;20028;-84
2022/02/21 09:41:55;;;;;;;0.10;0.10;;;;;;;7.32;67.52;99671.88;5094925;28;20670;-86
2022/02/21 09:44:21;;;;;;;0.10;0.10;;;;;;;7.08;68.60;99653.13;5095386;28;20103;-87
2022/02/21 09:46:49;;;;;;;0.10;0.10;;;;;;;7.13;68.40;99664.41;5096134;28;20040;-88
2022/02/21 09:49:17;;;;;;;0.10;0.10;;;;;;;7.20;68.50;99667.78;5096753;28;20024;-88
2022/02/21 09:51:45;;;;;;;0.10;0.10;;;;;;;7.32;68.19;99687.69;5096269;28;20032;-88
2022/02/21 09:54:12;;;;;;;0.00;0.00;;;;;;;7.28;68.35;99657.03;5096078;28;20035;-90
2022/02/21 09:56:40;;;;;;;0.10;0.10;;;;;;;7.37;67.55;99643.63;5094653;28;20035;-89
2022/02/21 09:59:06;;;;;;;12.35;2.40;;;;;;;7.37;67.06;99658.56;5095964;28;20055;-88
2022/02/21 10:01:38;;;;;;;0.30;0.30;;;;;;;7.50;67.36;99617.81;5096567;28;20028;-91
2022/02/21 10:04:12;;;;;;;0.10;0.10;;;;;;;7.42;66.99;99633.81;5098786;28;20111;-89
2022/02/21 10:06:38;;;;;;;0.40;0.40;;;;;;;7.65;65.97;99648.19;5096346;28;20028;-85
2022/02/21 10:09:10;;;;;;;0.10;0.10;;;;;;;7.53;66.64;99664.31;5096269;28;20042;-90
2022/02/21 10:11:40;;;;;;;0.10;0.10;;;;;;;7.75;66.17;99639.09;5096105;28;20028;-90
2022/02/21 10:16:58;;;;;;;0.10;0.10;;;;;;;7.85;66.34;99623.88;5033436;28;20147;-84
2022/02/21 10:22:11;;;;;;;0.08;0.08;;;;;;;7.92;66.27;99666.75;5105362;27;20391;-84
2022/02/21 10:27:30;;;;;;;0.10;0.10;;;;;;;7.92;67.47;99614.91;5054064;28;20472;-82
2022/02/21 10:32:38;;;;;;;0.10;0.10;;;;;;;7.92;67.61;99620.19;5133645;27;20452;-81
2022/02/21 10:37:57;;;;;;;0.00;0.00;;;;;;;7.87;68.81;99637.03;5114229;27;20382;-82
2022/02/21 10:40:29;;;;;;;0.13;0.13;;;;;;;7.93;68.06;99602.56;5086764;28;20033;-84
2022/02/21 10:43:06;;;;;;;0.15;0.15;;;;;;;8.04;67.96;99615.44;5074741;28;20025;-82
2022/02/21 10:45:33;;;;;;;6.78;1.38;;;;;;;8.14;67.38;99621.28;5072204;28;20030;-82
2022/02/21 10:51:00;;;;;;;0.10;0.10;;;;;;;8.32;67.06;99623.38;5085429;28;20422;-83
2022/02/21 10:53:44;;;;;;;0.10;0.10;;;;;;;8.35;67.06;99639.13;5070131;28;20025;-82
2022/02/21 10:56:12;;;;;;;3.28;2.10;;;;;;;8.26;68.09;99620.94;5068180;28;20025;-83
2022/02/21 10:58:39;;;;;;;0.10;0.10;;;;;;;8.29;68.38;99678.91;5069101;28;20037;-83
2022/02/21 11:01:07;;;;;;;0.00;0.00;;;;;;;8.32;68.68;99662.13;5064884;28;20022;-82
2022/02/21 11:03:37;;;;;;;0.17;0.17;;;;;;;8.23;69.36;99644.78;5063500;28;20029;-83
2022/02/21 11:06:05;;;;;;;1.90;1.75;;;;;;;8.37;68.82;99655.81;5064529;28;20030;-84
2022/02/21 11:08:32;;;;;;;0.20;0.20;;;;;;;8.29;68.92;99656.91;5053880;28;20025;-84
2022/02/21 11:11:08;;;;;;;1.40;1.33;;;;;;;8.48;68.14;99641.44;5057949;28;20040;-83
2022/02/21 11:13:35;;;;;;;10.18;0.93;;;;;;;8.71;67.94;99665.34;5067099;28;20032;-83
2022/02/21 11:16:03;;;;;;;0.90;0.77;;;;;;;8.55;68.13;99661.47;5056672;28;20033;-83
2022/02/21 11:18:29;;;;;;;0.20;0.20;;;;;;;8.74;67.71;99636.19;5053880;28;20037;-83
2022/02/21 11:20:56;;;;;;;0.10;0.10;;;;;;;8.82;67.13;99650.94;5073732;28;20033;-84
2022/02/21 11:23:22;;;;;;;0.05;0.05;;;;;;;9.03;67.52;99625.59;5068310;28;20039;-84
2022/02/21 11:28:49;;;;;;;0.10;0.10;;;;;;;9.25;67.11;99636.31;5090194;27;20392;-81
2022/02/21 11:31:27;;;;;;;8.75;2.83;;;;;;;9.06;67.86;99641.38;5082361;28;20021;-82
2022/02/21 11:36:49;;;;;;;0.10;0.10;;;;;;;9.14;67.47;99651.66;5103235;27;20394;-83
2022/02/21 11:39:26;;;;;;;0.10;0.10;;;;;;;9.16;67.59;99663.03;5084308;28;20084;-83
2022/02/21 11:42:16;;;;;;;0.10;0.10;;;;;;;9.39;66.10;99633.19;5069681;28;20462;-82
2022/02/21 11:44:48;;;;;;;0.10;0.10;;;;;;;9.35;66.05;99648.28;5062232;28;20037;-82
2022/02/21 11:47:39;;;;;;;0.10;0.10;;;;;;;9.68;65.38;99653.34;5050720;28;20095;-82
2022/02/21 11:50:25;;;;;;;0.10;0.10;;;;;;;9.65;65.22;99653.44;5057474;28;20044;-83
2022/02/21 11:52:54;;;;;;;0.20;0.20;;;;;;;9.77;64.42;99665.38;5060136;28;20490;-82
2022/02/21 11:55:38;;;;;;;0.17;0.17;;;;;;;9.90;64.00;99662.28;5054128;28;20020;-82
2022/02/21 12:01:09;;;;;;;0.20;0.20;;;;;;;9.77;64.99;99683.00;5064010;27;20425;-82
2022/02/21 12:03:35;;;;;;;0.40;0.40;;;;;;;9.67;65.89;99664.84;5050339;28;20037;-81
2022/02/21 12:08:46;;;;;;;0.10;0.10;;;;;;;9.41;67.04;99705.41;5090712;28;20443;-82
2022/02/21 12:16:31;;;;;;;0.08;0.08;;;;;;;9.52;66.17;99724.41;5070828;28;20398;-82
2022/02/21 12:18:58;;;;;;;0.10;0.10;;;;;;;9.55;66.56;99771.03;5070749;28;20037;-82
2022/02/21 12:21:28;;;;;;;0.10;0.10;;;;;;;9.69;66.08;99726.50;5070847;28;20386;-82
2022/02/21 12:29:25;;;;;;;0.10;0.10;;;;;;;10.11;65.56;99763.88;5090867;27;20417;-82